createdAt,value
2023-03-21T00:00:46.068Z,9.40
2023-03-21T00:03:14.464Z,9.40
2023-03-21T00:05:43.408Z,9.40
2023-03-21T00:08:13.249Z,9.40
2023-03-21T00:10:43.397Z,9.40
2023-03-21T00:13:13.210Z,9.40
2023-03-21T00:16:02.002Z,9.40
2023-03-21T00:18:32.561Z,9.40
2023-03-21T00:21:33.674Z,9.40
2023-03-21T00:23:52.116Z,9.40
2023-03-21T00:26:22.486Z,9.40
2023-03-21T00:28:51.248Z,9.40
2023-03-21T00:31:22.305Z,9.40
2023-03-21T00:33:51.590Z,9.40
2023-03-21T00:36:20.140Z,9.40
2023-03-21T00:38:48.646Z,9.40
2023-03-21T00:41:31.633Z,9.40
2023-03-21T00:44:06.896Z,9.40
2023-03-21T00:46:47.027Z,9.40
2023-03-21T00:49:17.713Z,9.40
2023-03-21T00:51:46.048Z,9.40
2023-03-21T00:54:14.682Z,9.40
2023-03-21T00:56:44.707Z,9.40
2023-03-21T00:59:13.110Z,9.40
2023-03-21T01:01:41.490Z,9.40
2023-03-21T01:04:13.676Z,9.40
2023-03-21T01:06:43.923Z,9.40
2023-03-21T01:09:15.324Z,9.40
2023-03-21T01:11:45.565Z,9.40
2023-03-21T01:14:22.500Z,9.40
2023-03-21T01:16:52.955Z,9.40
2023-03-21T01:19:30.828Z,9.40
2023-03-21T01:21:59.775Z,9.40
2023-03-21T01:24:28.522Z,9.40
2023-03-21T01:26:58.255Z,9.40
2023-03-21T01:29:26.889Z,9.40
2023-03-21T01:31:55.885Z,9.40
2023-03-21T01:34:24.561Z,9.40
2023-03-21T01:36:52.994Z,9.50
2023-03-21T01:39:22.587Z,9.40
2023-03-21T01:41:52.152Z,9.40
2023-03-21T01:44:24.952Z,9.40
2023-03-21T01:47:12.144Z,9.40
2023-03-21T01:49:48.544Z,9.40
2023-03-21T01:52:37.213Z,9.40
2023-03-21T01:55:13.527Z,9.40
2023-03-21T01:58:04.937Z,9.40
2023-03-21T02:00:41.895Z,9.40
2023-03-21T02:03:35.223Z,9.40
2023-03-21T02:06:45.432Z,9.40
2023-03-21T02:09:47.555Z,9.40
2023-03-21T02:12:20.384Z,9.40
2023-03-21T02:14:51.159Z,9.40
2023-03-21T02:17:35.840Z,9.40
2023-03-21T02:20:35.870Z,9.50
2023-03-21T02:24:01.777Z,9.50
2023-03-21T02:27:05.108Z,9.50
2023-03-21T02:30:20.153Z,9.50
2023-03-21T02:33:16.091Z,9.50
2023-03-21T02:36:00.616Z,9.50
2023-03-21T02:38:38.533Z,9.50
2023-03-21T02:41:19.616Z,9.50
2023-03-21T02:43:56.268Z,9.60
2023-03-21T02:46:43.856Z,9.60
2023-03-21T02:49:21.773Z,9.60
2023-03-21T02:51:53.083Z,9.60
2023-03-21T02:54:38.435Z,9.60
2023-03-21T02:57:14.282Z,9.60
2023-03-21T02:59:53.290Z,9.60
2023-03-21T03:02:29.397Z,9.60
2023-03-21T03:04:58.785Z,9.70
2023-03-21T03:07:39.162Z,9.70
2023-03-21T03:10:25.032Z,9.70
2023-03-21T03:13:02.581Z,9.70
2023-03-21T03:15:45.762Z,9.70
2023-03-21T03:18:22.277Z,9.70
2023-03-21T03:21:01.048Z,9.70
2023-03-21T03:23:36.010Z,9.70
2023-03-21T03:26:09.706Z,9.80
2023-03-21T03:28:42.427Z,9.80
2023-03-21T03:31:21.999Z,9.80
2023-03-21T03:33:57.292Z,9.80
2023-03-21T03:36:32.745Z,9.80
2023-03-21T03:39:08.914Z,9.80
2023-03-21T03:42:05.912Z,9.80
2023-03-21T03:44:38.593Z,9.80
2023-03-21T03:47:15.160Z,9.80
2023-03-21T03:49:51.946Z,9.90
2023-03-21T03:52:24.700Z,9.80
2023-03-21T03:55:00.215Z,9.90
2023-03-21T03:57:35.223Z,9.90
2023-03-21T04:00:11.842Z,9.90
2023-03-21T04:02:46.480Z,9.90
2023-03-21T04:05:21.416Z,9.90
2023-03-21T04:07:50.972Z,9.90
2023-03-21T04:10:23.028Z,9.90
2023-03-21T04:12:53.094Z,9.90
2023-03-21T04:15:27.120Z,9.90
2023-03-21T04:18:02.054Z,9.90
2023-03-21T04:20:36.964Z,9.90
2023-03-21T04:23:07.665Z,9.90
2023-03-21T04:25:38.710Z,10.00
2023-03-21T04:28:10.427Z,9.90
2023-03-21T04:30:51.940Z,10.00
2023-03-21T04:33:32.941Z,10.00
2023-03-21T04:36:01.376Z,10.00
2023-03-21T04:38:33.953Z,10.00
2023-03-21T04:41:05.276Z,10.00
2023-03-21T04:43:35.262Z,10.00
2023-03-21T04:46:04.275Z,10.00
2023-03-21T04:48:32.613Z,10.00
2023-03-21T04:51:02.638Z,10.00
2023-03-21T04:53:31.432Z,10.10
2023-03-21T04:56:00.708Z,10.00
2023-03-21T04:58:30.492Z,10.10
2023-03-21T05:01:04.925Z,10.10
2023-03-21T05:03:34.637Z,10.10
2023-03-21T05:06:03.885Z,10.00
2023-03-21T05:08:32.239Z,10.10
2023-03-21T05:11:04.735Z,10.10
2023-03-21T05:13:33.577Z,10.10
2023-03-21T05:16:03.320Z,10.10
2023-03-21T05:18:35.002Z,10.10
2023-03-21T05:21:10.748Z,10.10
2023-03-21T05:23:40.918Z,10.10
2023-03-21T05:26:11.251Z,10.10
2023-03-21T05:28:54.454Z,10.20
2023-03-21T05:31:24.470Z,10.20
2023-03-21T05:34:00.381Z,10.10
2023-03-21T05:36:28.791Z,10.20
2023-03-21T05:38:57.374Z,10.20
2023-03-21T05:41:25.799Z,10.20
2023-03-21T05:43:56.814Z,10.20
2023-03-21T05:46:29.438Z,10.20
2023-03-21T05:49:00.424Z,10.20
2023-03-21T05:51:29.667Z,10.20
2023-03-21T05:53:58.180Z,10.30
2023-03-21T05:56:27.334Z,10.30
2023-03-21T05:59:03.468Z,10.30
2023-03-21T06:01:36.702Z,10.30
2023-03-21T06:04:13.376Z,10.30
2023-03-21T06:06:41.954Z,10.30
2023-03-21T06:09:10.503Z,10.30
2023-03-21T06:11:45.539Z,10.30
2023-03-21T06:14:28.947Z,10.30
2023-03-21T06:17:17.423Z,10.40
2023-03-21T06:19:51.968Z,10.40
2023-03-21T06:22:28.392Z,10.40
2023-03-21T06:24:56.854Z,10.40
2023-03-21T06:27:25.278Z,10.40
2023-03-21T06:30:03.557Z,10.40
2023-03-21T06:32:39.293Z,10.40
2023-03-21T06:35:11.756Z,10.50
2023-03-21T06:37:40.353Z,10.50
2023-03-21T06:40:09.838Z,10.50
2023-03-21T06:42:38.328Z,10.50
2023-03-21T06:45:13.253Z,10.60
2023-03-21T06:54:59.162Z,10.70
2023-03-21T06:57:57.804Z,10.70
2023-03-21T07:06:57.213Z,10.90
2023-03-21T07:09:35.669Z,11.00
2023-03-21T07:12:27.772Z,11.00
2023-03-21T07:15:56.564Z,11.10
2023-03-21T07:19:19.484Z,11.10
2023-03-21T07:22:36.088Z,11.20
2023-03-21T07:25:16.551Z,11.30
2023-03-21T07:28:03.574Z,11.30
2023-03-21T07:30:54.519Z,11.40
2023-03-21T07:34:11.778Z,11.50
2023-03-21T07:36:50.705Z,11.60
2023-03-21T07:39:42.428Z,11.70
2023-03-21T07:42:35.388Z,11.80
2023-03-21T07:45:51.883Z,11.90
2023-03-21T07:48:20.733Z,12.00
2023-03-21T07:50:51.276Z,12.00
2023-03-21T07:53:20.095Z,12.10
2023-03-21T07:55:51.828Z,12.10
2023-03-21T07:58:21.877Z,12.20
2023-03-21T08:00:50.396Z,12.20
2023-03-21T08:03:20.278Z,12.30
2023-03-21T08:05:49.249Z,12.40
2023-03-21T08:08:19.256Z,12.40
2023-03-21T08:10:48.218Z,12.50
2023-03-21T08:13:16.848Z,12.50
2023-03-21T08:15:46.844Z,12.70
2023-03-21T08:18:15.448Z,12.80
2023-03-21T08:20:44.264Z,12.90
2023-03-21T08:23:13.977Z,13.10
2023-03-21T08:25:45.440Z,13.30
2023-03-21T08:28:13.881Z,13.60
2023-03-21T08:30:42.305Z,13.80
2023-03-21T08:33:13.886Z,13.80
2023-03-21T08:35:44.823Z,14.00
2023-03-21T08:38:16.980Z,14.40
2023-03-21T08:40:45.983Z,14.90
2023-03-21T08:43:16.220Z,15.50
2023-03-21T08:45:47.433Z,15.50
2023-03-21T08:48:17.293Z,15.90
2023-03-21T08:50:46.158Z,15.90
2023-03-21T08:53:30.785Z,15.60
2023-03-21T08:56:00.666Z,15.50
2023-03-21T08:58:29.229Z,15.40
2023-03-21T09:00:57.704Z,15.30
2023-03-21T09:03:28.403Z,15.50
2023-03-21T09:05:58.421Z,15.60
2023-03-21T09:08:27.112Z,15.50
2023-03-21T09:10:56.480Z,15.40
2023-03-21T09:13:25.880Z,15.40
2023-03-21T09:15:54.483Z,15.50
2023-03-21T09:18:43.083Z,15.90
2023-03-21T09:21:16.620Z,15.90
2023-03-21T09:24:02.936Z,16.20
2023-03-21T09:26:31.614Z,17.20
2023-03-21T09:29:01.003Z,18.20
2023-03-21T09:31:44.314Z,18.90
2023-03-21T09:34:21.324Z,19.20
2023-03-21T09:37:04.851Z,19.60
2023-03-21T09:42:39.269Z,19.40
2023-03-21T09:45:17.677Z,18.70
2023-03-21T09:47:53.432Z,18.50
2023-03-21T09:50:27.471Z,19.10
2023-03-21T09:52:59.655Z,20.00
2023-03-21T09:55:31.982Z,20.60
2023-03-21T10:01:05.359Z,21.40
2023-03-21T10:03:36.435Z,21.20
2023-03-21T10:06:08.525Z,21.50
2023-03-21T10:08:41.446Z,21.70
2023-03-21T10:11:15.872Z,22.00
2023-03-21T10:13:49.664Z,21.70
2023-03-21T10:16:22.397Z,21.00
2023-03-21T10:18:52.044Z,20.80
2023-03-21T10:21:51.480Z,21.00
2023-03-21T10:24:17.549Z,21.40
2023-03-21T10:26:47.978Z,22.10
2023-03-21T10:29:18.539Z,22.50
2023-03-21T10:31:48.766Z,22.40
2023-03-21T10:34:20.083Z,22.30
2023-03-21T10:36:48.726Z,22.70
2023-03-21T10:39:27.483Z,23.30
2023-03-21T10:41:56.074Z,23.90
2023-03-21T10:44:31.154Z,24.20
2023-03-21T10:47:04.588Z,23.90
2023-03-21T10:49:40.566Z,23.20
2023-03-21T10:52:14.587Z,22.80
2023-03-21T10:54:44.932Z,22.30
2023-03-21T10:57:19.075Z,22.20
2023-03-21T10:59:53.770Z,22.60
2023-03-21T11:02:27.582Z,22.90
2023-03-21T11:04:58.392Z,23.10
2023-03-21T11:07:31.141Z,23.30
2023-03-21T11:10:02.392Z,23.60
2023-03-21T11:12:34.538Z,23.70
2023-03-21T11:15:27.208Z,23.90
2023-03-21T11:17:55.756Z,24.10
2023-03-21T11:20:24.758Z,24.00
2023-03-21T11:22:56.708Z,23.80
2023-03-21T11:25:36.471Z,24.00
2023-03-21T11:28:08.293Z,23.90
2023-03-21T11:30:36.933Z,24.10
2023-03-21T11:33:07.909Z,23.50
2023-03-21T11:35:38.880Z,23.20
2023-03-21T11:38:11.077Z,23.20
2023-03-21T11:40:54.675Z,23.30
2023-03-21T11:43:32.001Z,23.90
2023-03-21T11:46:06.573Z,24.30
2023-03-21T11:48:40.933Z,24.20
2023-03-21T11:51:23.774Z,24.50
2023-03-21T11:54:03.109Z,24.80
2023-03-21T11:56:36.435Z,25.10
2023-03-21T11:59:17.718Z,24.80
2023-03-21T12:01:57.704Z,24.80
2023-03-21T12:04:48.052Z,24.80
2023-03-21T12:07:40.525Z,24.60
2023-03-21T12:10:43.773Z,24.10
2023-03-21T12:13:29.207Z,23.30
2023-03-21T12:16:08.445Z,22.60
2023-03-21T12:19:00.298Z,22.10
2023-03-21T12:21:37.811Z,21.90
2023-03-21T12:24:14.149Z,21.80
2023-03-21T12:26:49.612Z,21.70
2023-03-21T12:29:37.621Z,21.60
2023-03-21T12:32:25.873Z,21.60
2023-03-21T12:35:16.366Z,21.60
2023-03-21T12:37:57.397Z,21.50
2023-03-21T12:40:40.770Z,21.50
2023-03-21T12:43:27.146Z,21.60
2023-03-21T12:46:01.478Z,21.50
2023-03-21T12:48:39.564Z,21.30
2023-03-21T12:51:15.810Z,21.20
2023-03-21T12:53:53.131Z,21.10
2023-03-21T12:56:26.624Z,21.10
2023-03-21T12:59:01.227Z,21.10
2023-03-21T13:01:31.559Z,20.90
2023-03-21T13:04:27.523Z,20.80
2023-03-21T13:07:01.952Z,20.80
2023-03-21T13:09:38.259Z,20.80
2023-03-21T13:12:22.258Z,20.70
2023-03-21T13:15:23.664Z,20.60
2023-03-21T13:18:02.288Z,20.50
2023-03-21T13:20:38.815Z,20.60
2023-03-21T13:23:09.365Z,20.60
2023-03-21T13:25:44.336Z,20.50
2023-03-21T13:28:21.269Z,20.40
2023-03-21T13:30:50.283Z,20.30
2023-03-21T13:33:24.043Z,20.30
2023-03-21T13:36:05.332Z,20.30
2023-03-21T13:38:35.583Z,20.30
2023-03-21T13:41:09.059Z,20.10
2023-03-21T13:43:44.659Z,20.10
2023-03-21T13:46:14.666Z,20.10
2023-03-21T13:49:00.275Z,20.00
2023-03-21T13:51:46.989Z,20.00
2023-03-21T13:54:24.149Z,20.00
2023-03-21T13:57:01.168Z,20.00
2023-03-21T13:59:44.283Z,19.80
2023-03-21T14:02:33.624Z,19.70
2023-03-21T14:05:07.656Z,19.80
2023-03-21T14:07:42.355Z,19.80
2023-03-21T14:10:21.042Z,19.60
2023-03-21T14:12:50.604Z,19.40
2023-03-21T14:15:22.968Z,19.20
2023-03-21T14:17:53.974Z,19.20
2023-03-21T14:20:26.432Z,19.20
2023-03-21T14:22:55.766Z,19.20
2023-03-21T14:25:31.263Z,19.20
2023-03-21T14:28:10.562Z,19.00
2023-03-21T14:30:40.966Z,18.80
2023-03-21T14:33:17.596Z,18.80
2023-03-21T14:36:32.973Z,18.80
2023-03-21T14:39:09.253Z,18.70
2023-03-21T14:41:49.359Z,18.60
2023-03-21T14:44:26.331Z,18.40
2023-03-21T14:47:00.600Z,18.30
2023-03-21T14:49:35.123Z,18.20
2023-03-21T14:52:06.826Z,18.30
2023-03-21T14:54:38.300Z,18.30
2023-03-21T14:57:11.870Z,18.10
2023-03-21T14:59:41.837Z,18.00
2023-03-21T15:02:17.972Z,17.90
2023-03-21T15:04:51.186Z,17.90
2023-03-21T15:07:28.342Z,17.90
2023-03-21T15:10:50.326Z,17.90
2023-03-21T15:13:26.359Z,17.90
2023-03-21T15:15:55.552Z,17.90
2023-03-21T15:18:28.947Z,17.80
2023-03-21T15:20:58.938Z,17.80
2023-03-21T15:23:31.811Z,17.70
2023-03-21T15:26:03.971Z,17.70
2023-03-21T15:28:35.591Z,17.70
2023-03-21T15:31:32.821Z,17.70
2023-03-21T15:34:01.908Z,17.60
2023-03-21T15:36:59.157Z,17.40
2023-03-21T15:39:29.780Z,17.40
2023-03-21T15:42:01.323Z,17.30
2023-03-21T15:44:31.520Z,17.30
2023-03-21T15:47:03.409Z,17.20
2023-03-21T15:49:33.606Z,17.00
2023-03-21T15:52:08.699Z,17.00
2023-03-21T15:54:58.307Z,16.90
2023-03-21T15:57:32.933Z,16.80
2023-03-21T16:00:21.559Z,16.70
2023-03-21T16:02:53.414Z,16.70
2023-03-21T16:05:27.556Z,16.70
2023-03-21T16:08:00.566Z,16.70
2023-03-21T16:10:31.602Z,16.70
2023-03-21T16:13:00.779Z,16.60
2023-03-21T16:15:31.141Z,16.60
2023-03-21T16:18:01.889Z,16.50
2023-03-21T16:20:34.279Z,16.50
2023-03-21T16:23:02.778Z,16.30
2023-03-21T16:25:32.527Z,16.20
2023-03-21T16:28:01.194Z,16.20
2023-03-21T16:30:31.038Z,16.20
2023-03-21T16:32:59.612Z,16.10
2023-03-21T16:35:28.150Z,16.10
2023-03-21T16:37:56.640Z,16.00
2023-03-21T16:40:30.088Z,15.80
2023-03-21T16:42:58.654Z,15.80
2023-03-21T16:45:28.817Z,15.70
2023-03-21T16:47:59.134Z,15.70
2023-03-21T16:50:29.804Z,15.60
2023-03-21T16:52:59.182Z,15.50
2023-03-21T16:55:28.602Z,15.40
2023-03-21T16:57:57.699Z,15.30
2023-03-21T17:00:28.528Z,15.30
2023-03-21T17:03:27.066Z,15.10
2023-03-21T17:05:55.469Z,15.00
2023-03-21T17:08:26.569Z,15.00
2023-03-21T17:10:54.888Z,14.90
2023-03-21T17:13:23.174Z,14.80
2023-03-21T17:15:53.583Z,14.80
2023-03-21T17:18:22.030Z,14.70
2023-03-21T17:21:10.029Z,14.70
2023-03-21T17:23:38.463Z,14.60
2023-03-21T17:26:09.674Z,14.60
2023-03-21T17:28:38.472Z,14.50
2023-03-21T17:31:12.947Z,14.40
2023-03-21T17:33:43.809Z,14.30
2023-03-21T17:36:17.254Z,14.30
2023-03-21T17:38:46.873Z,14.20
2023-03-21T17:41:24.358Z,14.20
2023-03-21T17:47:59.636Z,14.10
2023-03-21T17:50:34.024Z,14.00
2023-03-21T17:53:03.842Z,14.00
2023-03-21T17:55:32.479Z,13.90
2023-03-21T17:58:01.688Z,13.90
2023-03-21T18:00:32.137Z,13.80
2023-03-21T18:03:00.729Z,13.70
2023-03-21T18:05:29.724Z,13.70
2023-03-21T18:08:13.629Z,13.70
2023-03-21T18:10:46.553Z,13.60
2023-03-21T18:13:15.091Z,13.50
2023-03-21T18:15:44.640Z,13.50
2023-03-21T18:18:14.460Z,13.40
2023-03-21T18:20:51.678Z,13.40
2023-03-21T18:23:21.051Z,13.30
2023-03-21T18:25:52.573Z,13.20
2023-03-21T18:28:22.286Z,13.20
2023-03-21T18:34:13.304Z,13.00
2023-03-21T18:36:49.906Z,13.00
2023-03-21T18:40:12.097Z,12.90
2023-03-21T18:43:27.413Z,12.70
2023-03-21T18:45:32.365Z,12.70
2023-03-21T18:48:13.217Z,12.60
2023-03-21T18:50:41.878Z,12.60
2023-03-21T18:53:10.393Z,12.60
2023-03-21T18:55:46.077Z,12.60
2023-03-21T18:58:19.632Z,12.60
2023-03-21T19:00:48.523Z,12.50
2023-03-21T19:03:30.158Z,12.50
2023-03-21T19:06:05.011Z,12.50
2023-03-21T19:08:34.909Z,12.50
2023-03-21T19:11:06.401Z,12.50
2023-03-21T19:13:36.933Z,12.50
2023-03-21T19:16:11.291Z,12.50
2023-03-21T19:18:57.341Z,12.50
2023-03-21T19:21:37.690Z,12.50
2023-03-21T19:24:26.553Z,12.50
2023-03-21T19:26:56.509Z,12.40
2023-03-21T19:29:26.677Z,12.40
2023-03-21T19:32:09.894Z,12.40
2023-03-21T19:34:38.867Z,12.40
2023-03-21T19:37:07.684Z,12.40
2023-03-21T19:42:45.902Z,12.30
2023-03-21T19:45:16.227Z,12.20
2023-03-21T19:47:45.198Z,12.20
2023-03-21T19:53:03.157Z,12.10
2023-03-21T19:55:32.230Z,12.00
2023-03-21T19:58:02.058Z,12.00
2023-03-21T20:00:33.027Z,11.90
2023-03-21T20:03:01.938Z,11.90
2023-03-21T20:05:45.280Z,11.90
2023-03-21T20:08:16.072Z,11.80
2023-03-21T20:10:47.808Z,11.80
2023-03-21T20:13:16.933Z,11.70
2023-03-21T20:15:54.931Z,11.70
2023-03-21T20:18:25.407Z,11.60
2023-03-21T20:20:55.214Z,11.60
2023-03-21T20:23:25.753Z,11.60
2023-03-21T20:25:59.547Z,11.60
2023-03-21T20:28:31.787Z,11.50
2023-03-21T20:31:19.295Z,11.50
2023-03-21T20:33:49.372Z,11.50
2023-03-21T20:36:39.952Z,11.50
2023-03-21T20:41:54.849Z,11.40
2023-03-21T20:47:15.109Z,11.30
2023-03-21T20:49:44.323Z,11.30
2023-03-21T20:55:03.159Z,11.30
2023-03-21T20:57:34.188Z,11.30
2023-03-21T21:00:09.148Z,11.30
2023-03-21T21:02:39.328Z,11.30
2023-03-21T21:05:25.857Z,11.30
2023-03-21T21:07:56.981Z,11.30
2023-03-21T21:10:26.287Z,11.30
2023-03-21T21:12:55.204Z,11.30
2023-03-21T21:15:25.164Z,11.40
2023-03-21T21:18:06.627Z,11.40
2023-03-21T21:20:37.629Z,11.30
2023-03-21T21:23:06.647Z,11.30
2023-03-21T21:25:38.290Z,11.40
2023-03-21T21:28:09.677Z,11.40
2023-03-21T21:30:41.539Z,11.30
2023-03-21T21:33:14.649Z,11.30
2023-03-21T21:35:47.796Z,11.30
2023-03-21T21:38:17.766Z,11.30
2023-03-21T21:40:46.818Z,11.30
2023-03-21T21:43:17.360Z,11.30
2023-03-21T21:45:46.783Z,11.30
2023-03-21T21:48:17.257Z,11.30
2023-03-21T21:50:47.482Z,11.30
2023-03-21T21:53:18.675Z,11.30
2023-03-21T21:55:48.945Z,11.30
2023-03-21T21:58:19.197Z,11.30
2023-03-21T22:00:48.800Z,11.30
2023-03-21T22:03:22.412Z,11.30
2023-03-21T22:05:52.440Z,11.30
2023-03-21T22:08:23.115Z,11.30
2023-03-21T22:10:51.907Z,11.30
2023-03-21T22:13:20.517Z,11.30
2023-03-21T22:15:49.108Z,11.30
2023-03-21T22:18:19.297Z,11.30
2023-03-21T22:20:47.967Z,11.30
2023-03-21T22:23:16.603Z,11.30
2023-03-21T22:25:51.041Z,11.30
2023-03-21T22:28:22.094Z,11.40
2023-03-21T22:30:53.459Z,11.40
2023-03-21T22:33:23.827Z,11.40
2023-03-21T22:35:53.777Z,11.40
2023-03-21T22:38:24.017Z,11.40
2023-03-21T22:40:56.551Z,11.40
2023-03-21T22:43:25.650Z,11.40
2023-03-21T22:45:54.757Z,11.40
2023-03-21T22:48:24.686Z,11.40
2023-03-21T22:50:53.186Z,11.30
2023-03-21T22:53:21.614Z,11.30
2023-03-21T22:55:50.089Z,11.30
2023-03-21T22:58:18.839Z,11.30
2023-03-21T23:00:47.596Z,11.30
2023-03-21T23:03:16.871Z,11.30
2023-03-21T23:05:47.228Z,11.30
2023-03-21T23:08:16.287Z,11.30
2023-03-21T23:10:46.067Z,11.40
2023-03-21T23:13:14.805Z,11.30
2023-03-21T23:15:43.507Z,11.40
2023-03-21T23:18:12.050Z,11.30
2023-03-21T23:20:41.088Z,11.30
2023-03-21T23:23:11.426Z,11.30
2023-03-21T23:25:42.384Z,11.30
2023-03-21T23:28:11.251Z,11.40
2023-03-21T23:30:39.906Z,11.40
2023-03-21T23:33:08.554Z,11.30
2023-03-21T23:35:38.368Z,11.40
2023-03-21T23:38:07.448Z,11.30
2023-03-21T23:40:40.051Z,11.30
2023-03-21T23:43:08.846Z,11.40
2023-03-21T23:45:37.307Z,11.40
2023-03-21T23:48:06.316Z,11.40
2023-03-21T23:50:34.964Z,11.40
2023-03-21T23:53:05.781Z,11.40
2023-03-21T23:55:37.809Z,11.40
2023-03-21T23:58:09.227Z,11.40
